createdAt,value
2023-08-23T00:00:17.782Z,46.61
2023-08-23T00:02:44.662Z,46.56
2023-08-23T00:05:11.578Z,46.53
2023-08-23T00:07:38.590Z,46.40
2023-08-23T00:10:06.114Z,46.64
2023-08-23T00:12:33.030Z,46.36
2023-08-23T00:14:59.953Z,46.08
2023-08-23T00:17:26.899Z,46.25
2023-08-23T00:19:55.305Z,46.37
2023-08-23T00:22:22.195Z,46.55
2023-08-23T00:24:49.074Z,46.86
2023-08-23T00:27:15.926Z,47.29
2023-08-23T00:29:42.816Z,47.70
2023-08-23T00:32:09.713Z,46.78
2023-08-23T00:34:36.626Z,46.97
2023-08-23T00:37:03.882Z,47.14
2023-08-23T00:39:30.808Z,47.28
2023-08-23T00:41:57.676Z,47.32
2023-08-23T00:44:24.563Z,46.67
2023-08-23T00:46:51.702Z,46.21
2023-08-23T00:49:19.932Z,46.18
2023-08-23T00:51:47.112Z,46.89
2023-08-23T00:54:14.381Z,45.96
2023-08-23T00:56:41.446Z,47.00
2023-08-23T00:59:09.513Z,47.50
2023-08-23T01:01:36.561Z,47.44
2023-08-23T01:04:03.598Z,47.76
2023-08-23T01:06:48.254Z,48.40
2023-08-23T01:09:42.896Z,48.33
2023-08-23T01:12:22.992Z,48.61
2023-08-23T01:14:56.220Z,49.70
2023-08-23T01:17:24.064Z,49.10
2023-08-23T01:19:51.963Z,49.46
2023-08-23T01:22:24.322Z,49.30
2023-08-23T01:24:52.259Z,49.49
2023-08-23T01:27:20.243Z,50.13
2023-08-23T01:29:48.036Z,50.02
2023-08-23T01:32:45.165Z,49.70
2023-08-23T01:35:19.276Z,49.88
2023-08-23T01:37:50.874Z,50.38
2023-08-23T01:40:17.879Z,51.21
2023-08-23T01:42:45.985Z,50.53
2023-08-23T01:45:13.291Z,51.60
2023-08-23T01:47:40.240Z,51.05
2023-08-23T01:50:07.628Z,50.95
2023-08-23T01:52:34.505Z,50.24
2023-08-23T01:55:01.360Z,50.68
2023-08-23T01:57:30.242Z,50.24
2023-08-23T01:59:57.522Z,50.32
2023-08-23T02:02:25.023Z,51.30
2023-08-23T02:04:52.088Z,51.43
2023-08-23T02:07:19.147Z,51.48
2023-08-23T02:09:46.312Z,50.85
2023-08-23T02:12:13.851Z,50.89
2023-08-23T02:14:40.769Z,51.62
2023-08-23T02:17:07.845Z,50.77
2023-08-23T02:19:34.752Z,51.29
2023-08-23T02:22:01.599Z,50.42
2023-08-23T02:24:28.607Z,51.06
2023-08-23T02:26:55.451Z,51.60
2023-08-23T02:29:23.259Z,50.78
2023-08-23T02:31:50.237Z,51.61
2023-08-23T02:34:17.169Z,51.59
2023-08-23T02:36:44.101Z,51.76
2023-08-23T02:39:10.963Z,51.21
2023-08-23T02:41:37.942Z,51.00
2023-08-23T02:44:06.467Z,51.56
2023-08-23T02:46:33.457Z,51.09
2023-08-23T02:49:01.113Z,51.25
2023-08-23T02:51:28.006Z,51.35
2023-08-23T02:53:55.090Z,51.06
2023-08-23T02:56:22.035Z,51.77
2023-08-23T02:58:48.993Z,51.38
2023-08-23T03:01:17.659Z,51.16
2023-08-23T03:03:44.464Z,51.21
2023-08-23T03:06:12.325Z,51.90
2023-08-23T03:08:39.384Z,51.17
2023-08-23T03:11:07.480Z,51.33
2023-08-23T03:13:35.193Z,51.60
2023-08-23T03:16:02.459Z,52.41
2023-08-23T03:18:29.704Z,52.29
2023-08-23T03:20:56.699Z,51.91
2023-08-23T03:23:24.909Z,51.92
2023-08-23T03:25:52.349Z,51.74
2023-08-23T03:28:21.360Z,51.90
2023-08-23T03:30:49.134Z,52.74
2023-08-23T03:33:16.765Z,52.75
2023-08-23T03:35:44.499Z,52.19
2023-08-23T03:38:11.383Z,52.80
2023-08-23T03:40:39.558Z,52.50
2023-08-23T03:43:07.189Z,52.30
2023-08-23T03:45:35.238Z,52.36
2023-08-23T03:48:03.374Z,52.15
2023-08-23T03:50:30.974Z,51.92
2023-08-23T03:52:57.876Z,51.94
2023-08-23T03:55:24.880Z,52.04
2023-08-23T03:57:52.363Z,51.81
2023-08-23T04:00:19.692Z,52.68
2023-08-23T04:02:47.881Z,52.61
2023-08-23T04:05:15.543Z,52.46
2023-08-23T04:07:42.720Z,52.82
2023-08-23T04:10:19.330Z,53.55
2023-08-23T04:12:49.301Z,53.18
2023-08-23T04:15:25.142Z,52.78
2023-08-23T04:17:52.099Z,53.27
2023-08-23T04:20:19.193Z,53.46
2023-08-23T04:22:46.098Z,52.92
2023-08-23T04:25:13.267Z,53.00
2023-08-23T04:27:40.500Z,52.82
2023-08-23T04:30:11.347Z,52.82
2023-08-23T04:32:40.476Z,52.04
2023-08-23T04:35:08.007Z,52.89
2023-08-23T04:37:35.524Z,52.80
2023-08-23T04:40:08.188Z,52.44
2023-08-23T04:42:36.104Z,52.00
2023-08-23T04:45:03.944Z,51.80
2023-08-23T04:47:33.741Z,52.81
2023-08-23T04:50:00.945Z,51.82
2023-08-23T04:52:29.298Z,52.12
2023-08-23T04:54:56.295Z,52.30
2023-08-23T04:57:23.451Z,51.72
2023-08-23T04:59:51.492Z,50.42
2023-08-23T05:02:18.420Z,50.80
2023-08-23T05:04:47.498Z,51.13
2023-08-23T05:07:14.351Z,50.02
2023-08-23T05:09:42.908Z,49.75
2023-08-23T05:12:09.957Z,49.96
2023-08-23T05:14:36.860Z,49.66
2023-08-23T05:17:04.001Z,49.51
2023-08-23T05:19:30.965Z,50.27
2023-08-23T05:21:57.899Z,49.76
2023-08-23T05:24:24.784Z,50.19
2023-08-23T05:26:51.629Z,49.21
2023-08-23T05:29:18.556Z,49.24
2023-08-23T05:31:45.623Z,49.95
2023-08-23T05:34:12.587Z,49.46
2023-08-23T05:36:39.495Z,48.57
2023-08-23T05:39:07.573Z,48.73
2023-08-23T05:41:34.459Z,48.74
2023-08-23T05:44:01.368Z,48.51
2023-08-23T05:46:28.234Z,46.95
2023-08-23T05:48:55.182Z,47.03
2023-08-23T05:51:22.129Z,46.41
2023-08-23T05:53:49.058Z,46.26
2023-08-23T05:56:15.963Z,46.52
2023-08-23T05:58:42.931Z,46.34
2023-08-23T06:01:09.808Z,46.18
2023-08-23T06:03:37.548Z,45.56
2023-08-23T06:06:04.401Z,45.65
2023-08-23T06:08:31.271Z,45.15
2023-08-23T06:10:58.151Z,45.05
2023-08-23T06:13:25.096Z,45.62
2023-08-23T06:15:52.014Z,44.64
2023-08-23T06:18:18.896Z,44.18
2023-08-23T06:20:46.888Z,44.34
2023-08-23T06:23:13.812Z,43.78
2023-08-23T06:25:40.867Z,43.79
2023-08-23T06:28:08.796Z,43.23
2023-08-23T06:30:39.382Z,43.08
2023-08-23T06:33:07.124Z,42.52
2023-08-23T06:35:34.389Z,42.01
2023-08-23T06:38:01.277Z,42.10
2023-08-23T06:40:28.166Z,42.67
2023-08-23T06:42:55.136Z,42.38
2023-08-23T06:45:22.178Z,41.45
2023-08-23T06:47:50.789Z,41.01
2023-08-23T06:50:18.034Z,40.67
2023-08-23T06:52:45.066Z,41.34
2023-08-23T06:55:12.268Z,40.97
2023-08-23T06:57:40.977Z,39.79
2023-08-23T07:00:08.579Z,40.08
2023-08-23T07:02:35.541Z,38.88
2023-08-23T07:05:02.508Z,39.16
2023-08-23T07:07:29.383Z,39.18
2023-08-23T07:09:56.258Z,39.01
2023-08-23T07:12:23.180Z,38.72
2023-08-23T07:14:51.315Z,38.13
2023-08-23T07:17:18.309Z,37.81
2023-08-23T07:19:45.340Z,37.88
2023-08-23T07:22:12.470Z,37.48
2023-08-23T07:24:39.511Z,36.73
2023-08-23T07:27:06.737Z,36.96
2023-08-23T07:29:35.795Z,36.57
2023-08-23T07:32:02.662Z,36.49
2023-08-23T07:34:29.486Z,36.51
2023-08-23T07:36:56.338Z,35.94
2023-08-23T07:39:25.166Z,36.06
2023-08-23T07:41:52.250Z,36.10
2023-08-23T07:44:19.248Z,34.03
2023-08-23T07:46:46.255Z,34.79
2023-08-23T07:49:17.668Z,34.11
2023-08-23T07:51:44.724Z,34.40
2023-08-23T07:54:13.092Z,34.89
2023-08-23T07:56:39.964Z,34.02
2023-08-23T07:59:06.931Z,34.09
2023-08-23T08:01:33.929Z,33.96
2023-08-23T08:04:00.962Z,33.37
2023-08-23T08:06:27.913Z,32.35
2023-08-23T08:08:54.809Z,33.20
2023-08-23T08:11:22.543Z,33.49
2023-08-23T08:13:49.553Z,33.14
2023-08-23T08:16:16.657Z,31.96
2023-08-23T08:18:46.665Z,32.40
2023-08-23T08:21:13.575Z,32.67
2023-08-23T08:23:40.509Z,31.93
2023-08-23T08:26:09.046Z,31.73
2023-08-23T08:28:36.049Z,31.82
2023-08-23T08:31:02.899Z,31.60
2023-08-23T08:33:29.826Z,30.93
2023-08-23T08:35:56.748Z,30.90
2023-08-23T08:38:23.856Z,31.56
2023-08-23T08:40:51.262Z,31.15
2023-08-23T08:43:19.458Z,31.16
2023-08-23T08:45:46.840Z,31.01
2023-08-23T08:48:13.863Z,30.79
2023-08-23T08:50:44.113Z,30.96
2023-08-23T08:53:16.490Z,29.83
2023-08-23T08:55:46.142Z,29.92
2023-08-23T08:58:20.613Z,30.12
2023-08-23T09:00:52.797Z,30.49
2023-08-23T09:03:20.563Z,30.54
2023-08-23T09:05:49.638Z,30.16
2023-08-23T09:08:17.478Z,30.31
2023-08-23T09:10:44.331Z,29.49
2023-08-23T09:13:11.533Z,30.24
2023-08-23T09:15:38.637Z,29.10
2023-08-23T09:18:05.645Z,28.95
2023-08-23T09:20:32.808Z,28.41
2023-08-23T09:22:59.701Z,29.07
2023-08-23T09:25:26.674Z,28.74
2023-08-23T09:27:55.674Z,28.20
2023-08-23T09:30:23.199Z,28.61
2023-08-23T09:32:50.134Z,28.59
2023-08-23T09:35:18.800Z,28.20
2023-08-23T09:37:48.130Z,27.63
2023-08-23T09:40:25.379Z,27.93
2023-08-23T09:42:55.424Z,28.35
2023-08-23T09:45:24.825Z,27.40
2023-08-23T09:47:55.192Z,27.79
2023-08-23T09:50:24.155Z,28.07
2023-08-23T09:52:53.611Z,27.35
2023-08-23T09:55:22.810Z,27.33
2023-08-23T09:57:50.147Z,27.33
2023-08-23T10:00:18.258Z,26.70
2023-08-23T10:02:47.415Z,27.09
2023-08-23T10:05:15.295Z,26.54
2023-08-23T10:07:42.604Z,26.46
2023-08-23T10:10:10.301Z,27.61
2023-08-23T10:12:42.039Z,27.14
2023-08-23T10:15:12.106Z,27.34
2023-08-23T10:17:40.682Z,28.52
2023-08-23T10:20:09.467Z,28.99
2023-08-23T10:22:36.998Z,28.74
2023-08-23T10:25:18.743Z,28.22
2023-08-23T10:27:52.649Z,28.90
2023-08-23T10:30:29.990Z,28.50
2023-08-23T10:33:09.676Z,29.29
2023-08-23T10:35:38.008Z,29.03
2023-08-23T10:38:09.537Z,29.58
2023-08-23T10:40:41.111Z,29.69
2023-08-23T10:43:18.992Z,29.46
2023-08-23T10:45:53.782Z,29.77
2023-08-23T10:48:22.432Z,28.91
2023-08-23T10:50:50.478Z,29.00
2023-08-23T10:53:18.307Z,29.20
2023-08-23T10:55:46.377Z,28.67
2023-08-23T10:58:17.360Z,29.13
2023-08-23T11:00:46.553Z,29.56
2023-08-23T11:03:14.641Z,29.23
2023-08-23T11:05:44.642Z,28.75
2023-08-23T11:08:12.279Z,29.29
2023-08-23T11:10:39.431Z,29.69
2023-08-23T11:13:07.006Z,29.12
2023-08-23T11:15:34.918Z,28.19
2023-08-23T11:18:02.875Z,29.28
2023-08-23T11:20:29.929Z,28.73
2023-08-23T11:22:56.818Z,29.35
2023-08-23T11:25:23.790Z,28.62
2023-08-23T11:27:52.042Z,27.31
2023-08-23T11:30:21.921Z,27.83
2023-08-23T11:32:49.005Z,26.75
2023-08-23T11:35:20.145Z,26.48
2023-08-23T11:37:54.264Z,27.79
2023-08-23T11:40:24.158Z,27.71
2023-08-23T11:42:51.158Z,26.54
2023-08-23T11:45:18.024Z,26.97
2023-08-23T11:47:45.103Z,26.23
2023-08-23T11:50:12.190Z,25.06
2023-08-23T11:52:39.136Z,25.33
2023-08-23T11:55:06.282Z,24.38
2023-08-23T11:57:34.788Z,23.98
2023-08-23T12:00:02.007Z,24.46
2023-08-23T12:02:34.140Z,23.88
2023-08-23T12:05:01.083Z,24.62
2023-08-23T12:07:28.081Z,23.78
2023-08-23T12:09:55.069Z,25.65
2023-08-23T12:12:23.773Z,24.38
2023-08-23T12:14:50.745Z,24.48
2023-08-23T12:17:17.592Z,24.72
2023-08-23T12:19:44.544Z,24.21
2023-08-23T12:22:13.008Z,24.85
2023-08-23T12:24:39.928Z,24.55
2023-08-23T12:27:06.779Z,25.78
2023-08-23T12:29:33.746Z,24.55
2023-08-23T12:32:00.721Z,27.44
2023-08-23T12:34:27.596Z,29.07
2023-08-23T12:36:54.540Z,29.64
2023-08-23T12:39:21.515Z,29.75
2023-08-23T12:41:48.637Z,29.44
2023-08-23T12:44:16.772Z,29.12
2023-08-23T12:46:43.679Z,29.47
2023-08-23T12:49:14.086Z,28.92
2023-08-23T12:51:42.551Z,29.58
2023-08-23T12:54:10.149Z,28.57
2023-08-23T12:56:38.068Z,28.63
2023-08-23T12:59:05.209Z,28.04
2023-08-23T13:01:32.587Z,26.91
2023-08-23T13:03:59.529Z,26.96
2023-08-23T13:06:26.505Z,26.89
2023-08-23T13:08:53.355Z,26.66
2023-08-23T13:11:20.544Z,25.72
2023-08-23T13:13:52.453Z,25.54
2023-08-23T13:16:20.264Z,25.00
2023-08-23T13:18:47.173Z,25.50
2023-08-23T13:21:14.191Z,25.50
2023-08-23T13:23:41.149Z,25.52
2023-08-23T13:26:08.048Z,24.87
2023-08-23T13:28:35.298Z,25.56
2023-08-23T13:31:02.313Z,25.27
2023-08-23T13:33:29.273Z,25.20
2023-08-23T13:35:56.209Z,24.22
2023-08-23T13:38:23.104Z,25.07
2023-08-23T13:40:54.611Z,26.04
2023-08-23T13:43:21.558Z,25.18
2023-08-23T13:45:48.659Z,25.76
2023-08-23T13:48:15.584Z,26.25
2023-08-23T13:50:42.519Z,26.00
2023-08-23T13:53:09.557Z,26.35
2023-08-23T13:55:36.429Z,26.36
2023-08-23T13:58:03.504Z,27.09
2023-08-23T14:00:30.541Z,26.73
2023-08-23T14:02:57.548Z,26.70
2023-08-23T14:05:24.519Z,25.80
2023-08-23T14:07:51.686Z,25.82
2023-08-23T14:10:18.940Z,25.71
2023-08-23T14:12:45.926Z,26.23
2023-08-23T14:15:13.875Z,25.97
2023-08-23T14:17:42.651Z,25.89
2023-08-23T14:20:11.690Z,25.75
2023-08-23T14:22:38.821Z,25.68
2023-08-23T14:25:07.924Z,26.27
2023-08-23T14:27:34.963Z,26.14
2023-08-23T14:30:02.031Z,27.20
2023-08-23T14:32:29.758Z,27.27
2023-08-23T14:34:56.789Z,27.21
2023-08-23T14:37:23.743Z,27.97
2023-08-23T14:39:50.680Z,28.73
2023-08-23T14:42:17.650Z,27.64
2023-08-23T14:44:44.850Z,29.43
2023-08-23T14:47:11.906Z,28.73
2023-08-23T14:49:38.795Z,29.02
2023-08-23T14:52:06.132Z,28.78
2023-08-23T14:54:33.058Z,29.04
2023-08-23T14:56:59.998Z,29.52
2023-08-23T14:59:26.951Z,29.87
2023-08-23T15:01:53.846Z,29.65
2023-08-23T15:04:20.759Z,29.71
2023-08-23T15:06:47.667Z,29.71
2023-08-23T15:09:14.683Z,28.89
2023-08-23T15:11:41.765Z,29.45
2023-08-23T15:14:11.820Z,29.16
2023-08-23T15:16:39.064Z,29.93
2023-08-23T15:19:06.111Z,30.11
2023-08-23T15:21:33.003Z,29.01
2023-08-23T15:23:59.812Z,28.96
2023-08-23T15:26:26.783Z,28.79
2023-08-23T15:28:57.125Z,28.59
2023-08-23T15:31:24.950Z,28.80
2023-08-23T15:33:52.143Z,29.29
2023-08-23T15:36:19.067Z,29.27
2023-08-23T15:38:45.955Z,29.67
2023-08-23T15:41:12.804Z,29.32
2023-08-23T15:43:39.833Z,29.17
2023-08-23T15:46:06.866Z,29.16
2023-08-23T15:48:33.973Z,29.29
2023-08-23T15:51:03.173Z,28.35
2023-08-23T15:53:30.152Z,28.57
2023-08-23T15:56:01.799Z,28.36
2023-08-23T15:58:29.646Z,28.65
2023-08-23T16:00:56.965Z,27.90
2023-08-23T16:03:24.755Z,28.30
2023-08-23T16:05:59.215Z,28.56
2023-08-23T16:08:26.853Z,28.62
2023-08-23T16:10:54.221Z,28.66
2023-08-23T16:13:24.668Z,28.67
2023-08-23T16:15:52.101Z,29.46
2023-08-23T16:18:19.806Z,28.56
2023-08-23T16:20:49.427Z,28.29
2023-08-23T16:23:16.815Z,28.73
2023-08-23T16:25:44.004Z,28.56
2023-08-23T16:28:10.929Z,28.78
2023-08-23T16:30:41.211Z,28.83
2023-08-23T16:33:08.452Z,28.94
2023-08-23T16:35:39.685Z,28.61
2023-08-23T16:38:12.207Z,28.48
2023-08-23T16:40:39.827Z,28.63
2023-08-23T16:43:07.900Z,28.89
2023-08-23T16:45:34.848Z,29.68
2023-08-23T16:48:02.412Z,29.84
2023-08-23T16:50:29.797Z,29.63
2023-08-23T16:52:56.770Z,29.88
2023-08-23T16:55:23.645Z,29.67
2023-08-23T16:57:50.461Z,29.27
2023-08-23T17:00:17.674Z,30.47
2023-08-23T17:02:47.090Z,29.50
2023-08-23T17:05:14.927Z,30.22
2023-08-23T17:07:41.934Z,30.64
2023-08-23T17:10:09.150Z,30.56
2023-08-23T17:12:36.354Z,31.49
2023-08-23T17:15:03.398Z,31.43
2023-08-23T17:17:30.537Z,31.06
2023-08-23T17:19:57.622Z,31.10
2023-08-23T17:22:24.525Z,31.14
2023-08-23T17:24:51.378Z,31.66
2023-08-23T17:27:18.397Z,30.78
2023-08-23T17:29:45.405Z,31.31
2023-08-23T17:32:12.301Z,30.86
2023-08-23T17:34:39.455Z,31.54
2023-08-23T17:37:06.521Z,31.52
2023-08-23T17:39:33.636Z,31.64
2023-08-23T17:42:00.612Z,31.78
2023-08-23T17:44:27.559Z,31.65
2023-08-23T17:46:54.543Z,31.54
2023-08-23T17:49:21.502Z,31.19
2023-08-23T17:51:48.434Z,31.68
2023-08-23T17:54:15.329Z,32.03
2023-08-23T17:56:43.739Z,31.98
2023-08-23T17:59:10.576Z,32.04
2023-08-23T18:01:37.599Z,31.84
2023-08-23T18:04:04.592Z,31.91
2023-08-23T18:06:31.977Z,32.39
2023-08-23T18:08:59.021Z,32.28
2023-08-23T18:11:26.255Z,32.38
2023-08-23T18:13:53.325Z,32.11
2023-08-23T18:16:20.507Z,32.21
2023-08-23T18:18:47.457Z,32.16
2023-08-23T18:21:14.406Z,32.36
2023-08-23T18:23:41.302Z,32.70
2023-08-23T18:26:08.270Z,32.87
2023-08-23T18:28:35.231Z,33.10
2023-08-23T18:31:03.711Z,32.80
2023-08-23T18:33:36.086Z,32.99
2023-08-23T18:36:04.007Z,32.60
2023-08-23T18:38:30.987Z,33.49
2023-08-23T18:41:04.336Z,32.95
2023-08-23T18:43:32.744Z,33.13
2023-08-23T18:45:59.746Z,33.20
2023-08-23T18:48:26.640Z,33.03
2023-08-23T18:51:02.066Z,33.65
2023-08-23T18:53:29.137Z,33.81
2023-08-23T18:55:56.097Z,33.88
2023-08-23T18:58:23.070Z,33.94
2023-08-23T19:00:49.941Z,34.30
2023-08-23T19:03:18.268Z,33.77
2023-08-23T19:05:45.790Z,34.31
2023-08-23T19:08:13.296Z,34.03
2023-08-23T19:10:40.574Z,34.31
2023-08-23T19:13:07.507Z,34.32
2023-08-23T19:15:39.217Z,33.87
2023-08-23T19:18:07.303Z,34.64
2023-08-23T19:20:34.437Z,34.51
2023-08-23T19:23:01.338Z,34.87
2023-08-23T19:25:32.452Z,34.94
2023-08-23T19:28:00.424Z,35.08
2023-08-23T19:30:27.841Z,35.19
2023-08-23T19:32:55.041Z,34.97
2023-08-23T19:35:23.512Z,34.92
2023-08-23T19:37:52.026Z,34.89
2023-08-23T19:40:19.180Z,35.45
2023-08-23T19:42:46.014Z,35.62
2023-08-23T19:45:13.767Z,36.00
2023-08-23T19:47:41.367Z,36.65
2023-08-23T19:50:09.755Z,37.25
2023-08-23T19:52:36.634Z,37.68
2023-08-23T19:55:03.564Z,37.13
2023-08-23T19:57:34.609Z,38.20
2023-08-23T20:00:04.448Z,37.49
2023-08-23T20:02:41.646Z,37.74
2023-08-23T20:05:12.125Z,38.42
2023-08-23T20:07:39.965Z,37.71
2023-08-23T20:10:07.474Z,37.70
2023-08-23T20:12:41.773Z,38.22
2023-08-23T20:15:09.255Z,38.35
2023-08-23T20:17:36.292Z,37.53
2023-08-23T20:20:04.069Z,37.77
2023-08-23T20:22:31.638Z,38.98
2023-08-23T20:24:58.507Z,38.36
2023-08-23T20:27:25.333Z,38.99
2023-08-23T20:29:52.432Z,39.59
2023-08-23T20:32:20.394Z,39.46
2023-08-23T20:34:47.480Z,39.08
2023-08-23T20:37:14.470Z,39.76
2023-08-23T20:39:41.405Z,40.12
2023-08-23T20:42:09.980Z,40.54
2023-08-23T20:44:36.976Z,40.36
2023-08-23T20:47:04.161Z,40.61
2023-08-23T20:49:34.785Z,40.37
2023-08-23T20:52:04.323Z,40.92
2023-08-23T20:54:31.353Z,41.04
2023-08-23T20:56:58.299Z,40.28
2023-08-23T20:59:25.296Z,41.44
2023-08-23T21:01:52.404Z,40.78
2023-08-23T21:04:19.536Z,40.88
2023-08-23T21:06:46.489Z,41.15
2023-08-23T21:09:13.512Z,41.90
2023-08-23T21:11:41.595Z,40.75
2023-08-23T21:14:11.272Z,40.90
2023-08-23T21:16:39.043Z,41.50
2023-08-23T21:19:07.381Z,41.57
2023-08-23T21:21:34.783Z,41.91
2023-08-23T21:24:01.719Z,41.38
2023-08-23T21:26:28.620Z,42.16
2023-08-23T21:28:56.229Z,41.08
2023-08-23T21:31:23.193Z,41.07
2023-08-23T21:33:50.183Z,40.98
2023-08-23T21:36:17.905Z,40.92
2023-08-23T21:38:45.668Z,41.88
2023-08-23T21:41:13.417Z,42.03
2023-08-23T21:43:40.571Z,42.09
2023-08-23T21:46:07.487Z,42.27
2023-08-23T21:48:34.580Z,42.62
2023-08-23T21:51:01.551Z,42.04
2023-08-23T21:53:28.410Z,43.32
2023-08-23T21:55:56.615Z,43.21
2023-08-23T21:58:25.069Z,42.98
2023-08-23T22:00:57.517Z,43.43
2023-08-23T22:03:38.186Z,42.56
2023-08-23T22:06:10.747Z,42.72
2023-08-23T22:08:39.679Z,44.16
2023-08-23T22:11:10.097Z,43.99
2023-08-23T22:13:37.047Z,45.60
2023-08-23T22:16:05.080Z,45.83
2023-08-23T22:18:31.948Z,45.94
2023-08-23T22:21:00.877Z,46.29
2023-08-23T22:23:27.928Z,46.07
2023-08-23T22:25:54.952Z,45.26
2023-08-23T22:28:21.925Z,46.11
2023-08-23T22:30:48.780Z,46.82
2023-08-23T22:33:15.633Z,47.12
2023-08-23T22:35:42.850Z,46.54
2023-08-23T22:38:09.740Z,47.10
2023-08-23T22:40:37.212Z,46.22
2023-08-23T22:43:04.635Z,47.12
2023-08-23T22:45:32.657Z,46.23
2023-08-23T22:48:01.101Z,47.36
2023-08-23T22:50:28.769Z,47.06
2023-08-23T22:52:55.831Z,46.54
2023-08-23T22:55:23.011Z,47.13
2023-08-23T22:57:50.275Z,48.09
2023-08-23T23:00:17.453Z,47.62
2023-08-23T23:02:44.790Z,47.91
2023-08-23T23:05:12.812Z,47.32
2023-08-23T23:07:40.718Z,47.27
2023-08-23T23:10:08.222Z,47.70
2023-08-23T23:12:35.495Z,48.38
2023-08-23T23:15:04.482Z,48.54
2023-08-23T23:17:32.088Z,47.74
2023-08-23T23:19:59.540Z,47.99
2023-08-23T23:22:26.526Z,48.45
2023-08-23T23:24:53.598Z,47.97
2023-08-23T23:27:20.536Z,47.47
2023-08-23T23:29:47.417Z,47.71
2023-08-23T23:32:14.299Z,47.72
2023-08-23T23:34:41.132Z,47.51
2023-08-23T23:37:08.014Z,47.50
2023-08-23T23:39:34.981Z,48.02
2023-08-23T23:42:01.847Z,47.44
2023-08-23T23:44:28.803Z,46.90
2023-08-23T23:46:57.956Z,47.04
2023-08-23T23:49:26.008Z,46.69
2023-08-23T23:51:52.843Z,46.85
2023-08-23T23:54:19.779Z,47.09
2023-08-23T23:56:46.710Z,46.80
2023-08-23T23:59:13.583Z,46.77
